• Join FlightAware (Why Join?)
  • Login
  • US Flag 
06:16PM EDT


 

Airport Tracker/Info


-or-


 

Live Flight TrackerFlight Track Log ✈ AWE1190 ✈ 25-Jul-2013 ✈ KDCA - KCLT

Flight Track Log - Related Links

Times and Time Zones

All times are in EDT time to prevent confusion due to time zone crossing. See the AWE1190 flight status page for this flight to view local times or setup timezone preferences in your user account.

Time Position Orientation Groundspeed Altitude Reporting Facility
EDT Latitude Longitude Course Direction KTS MPH feet Rate Location/Type
02:28PM 38.8667 -77.0500 247° West 150 173 1,200  Level Potomac TRACON
02:29PM 38.9000 -77.0833 322° Northwest 196 226 3,000 2,400 Climbing Potomac TRACON
02:30PM 38.9500 -77.1333 322° Northwest 220 253 6,000 2,760 Climbing Potomac TRACON
02:31PM 38.5420 -77.3732 222° Southwest  Level FlightAware Approximate
02:31PM 39.0000 -77.2000 314° West 277 319 8,600  Level Potomac TRACON
02:32PM 38.4647 -77.4717 225° Southwest  Level FlightAware Approximate
02:32PM 38.9667 -77.2833 243° Southwest 298 343 11,000  Level Potomac TRACON
02:33PM 38.3812 -77.5563 247° West  Level FlightAware Approximate
02:33PM 38.8833 -77.3167 197° South 356 410 12,800  Level Potomac TRACON
02:34PM 38.8000 -77.3667 205° Southwest 377 434 15,500 2,460 Climbing Potomac TRACON
02:36PM 38.5797 -77.4772 201° Southwest 383 441 20,800 2,400 Climbing Washington Center
02:37PM 38.4767 -77.5303 202° Southwest 394 453 23,400 2,280 Climbing Washington Center
02:38PM 38.3817 -77.5914 207° Southwest 399 459 25,500 1,860 Climbing Washington Center
02:39PM 38.3089 -77.7033 230° Southwest 393 452 27,200 1,620 Climbing Washington Center
02:40PM 38.2361 -77.8150 230° Southwest 404 465 28,800 1,680 Climbing Washington Center
02:41PM 38.1631 -77.9264 230° Southwest 410 472 30,600 1,560 Climbing Washington Center
02:42PM 38.0900 -78.0375 230° Southwest 415 478 32,000 660 Climbing Washington Center
02:43PM 38.0189 -78.1458 230° Southwest 415 478 32,000  Level Washington Center
02:44PM 37.9500 -78.2489 230° Southwest 399 459 32,000  Level Washington Center
02:45PM 37.8744 -78.3594 229° Southwest 399 459 32,000  Level Washington Center
02:46PM 37.8011 -78.4644 229° Southwest 404 465 32,000  Level Washington Center
02:47PM 37.7167 -78.5847 228° Southwest 404 465 32,000  Level Washington Center
02:48PM 37.6408 -78.6944 229° Southwest 409 471 32,000  Level Washington Center
02:49PM 37.5653 -78.7986 228° Southwest 414 476 32,000  Level Washington Center
02:50PM 37.4892 -78.9081 229° Southwest 414 476 32,000  Level Washington Center
02:51PM 37.4197 -79.0044 228° Southwest 420 483 32,000  Level Washington Center
02:52PM 37.3436 -79.1108 228° Southwest 420 483 32,000  Level Washington Center
02:53PM 37.2633 -79.2167 226° Southwest 420 483 32,000  Level Washington Center
02:54PM 37.1708 -79.3061 218° Southwest 420 483 32,000  Level Washington Center
02:55PM 37.0722 -79.3872 213° Southwest 425 489 32,000  Level Washington Center
02:56PM 36.9631 -79.4756 213° Southwest 431 496 32,000 -120 Level Washington Center
02:57PM 36.8686 -79.5564 214° Southwest 431 496 31,800 -600 Descending Washington Center
02:58PM 36.7700 -79.6369 213° Southwest 431 496 30,800 -1,020 Descending Washington Center
02:59PM 36.6714 -79.7172 213° Southwest 431 496 29,800 -960 Descending Washington Center
03:00PM 36.5933 -79.7775 212° Southwest 425 489 29,100 -960 Descending Atlanta Center
03:01PM 36.4939 -79.8578 213° Southwest 425 489 28,100 -1,140 Descending Atlanta Center
03:02PM 36.3842 -79.9461 213° Southwest 430 495 26,900 -1,320 Descending Atlanta Center
03:03PM 36.2908 -80.0231 214° Southwest 424 488 25,500 -1,500 Descending Atlanta Center
03:04PM 36.1994 -80.1019 215° Southwest 418 481 23,900 -1,560 Descending Atlanta Center
03:05PM 36.1439 -80.1922 233° Southwest 374 430 22,400 -2,040 Descending Atlanta Center
03:06PM 36.0972 -80.2972 241° Southwest 368 423 19,900 -1,980 Descending Atlanta Center
03:07PM 35.9969 -80.2892 176° South 317 365 18,500 -1,740 Descending Atlanta Center
03:08PM 35.9236 -80.2847 177° South 362 417 17,000 -1,800 Descending Atlanta Center
03:08PM 35.8914 -80.3194 221° Southwest 348 400 16,400 -1,080 Descending Atlanta Center
03:09PM 35.8394 -80.3936 229° Southwest 325 374 15,600 -900 Descending Atlanta Center
03:10PM 35.7850 -80.4575 224° Southwest 318 366 14,800 -960 Descending Atlanta Center
03:11PM 35.7178 -80.5142 214° Southwest 308 354 13,700 -1,080 Descending Atlanta Center
03:12PM 35.6525 -80.5681 214° Southwest 294 338 12,700 -1,020 Descending Atlanta Center
03:13PM 35.5894 -80.6219 215° Southwest 283 326 11,700 -1,020 Descending Atlanta Center
03:14PM 35.5261 -80.6756 215° Southwest 283 326 10,700 -900 Descending Atlanta Center
03:15PM 35.4567 -80.7319 213° Southwest 283 326 10,000 -360 Descending Atlanta Center
03:16PM 35.3936 -80.7853 215° Southwest 277 319 10,000 -60 Level Atlanta Center
03:17PM 35.3156 -80.8419 211° Southwest 278 320 9,900 -540 Descending Atlanta Center
03:18PM 35.2322 -80.8375 178° South 278 320 8,900 -1,200 Descending Atlanta Center
03:19PM 35.1547 -80.8303 176° South 271 312 7,500 -1,320 Descending Atlanta Center
03:20PM 35.0817 -80.8256 177° South 263 303 6,300 -1,380 Descending Atlanta Center
03:21PM 35.0106 -80.8181 175° South 251 289 4,700 -1,140 Descending Atlanta Center
03:22PM 34.9478 -80.8131 176° South 238 274 4,000 -360 Descending Atlanta Center
03:23PM 34.8831 -80.8106 178° South 201 231 4,000  Level Atlanta Center
03:24PM 34.8417 -80.8322 203° Southwest 186 214 4,000  Level Atlanta Center
03:25PM 34.8536 -80.8875 285° West 181 208 4,000  Level Atlanta Center
03:26PM 34.8939 -80.9089 336° Northwest 179 206 4,000  Level Atlanta Center
03:27PM 34.9442 -80.9169 353° North 179 206 4,000  Level Atlanta Center
03:28PM 35.0025 -80.9200 358° North 180 207 4,000  Level Atlanta Center